createdAt,value
2023-02-12T00:01:47.327Z,102676.53
2023-02-12T00:04:16.951Z,102684.66
2023-02-12T00:06:43.638Z,102695.38
2023-02-12T00:09:10.387Z,102698.13
2023-02-12T00:11:37.042Z,102699.09
2023-02-12T00:14:05.683Z,102704.63
2023-02-12T00:16:32.350Z,102700.13
2023-02-12T00:19:05.056Z,102703.72
2023-02-12T00:21:32.011Z,102708.16
2023-02-12T00:24:09.261Z,102712.66
2023-02-12T00:26:36.559Z,102716.28
2023-02-12T00:29:05.661Z,102714.44
2023-02-12T00:31:32.812Z,102718.94
2023-02-12T00:34:00.979Z,102714.63
2023-02-12T00:36:32.608Z,102716.50
2023-02-12T00:39:02.907Z,102713.81
2023-02-12T00:41:33.221Z,102709.56
2023-02-12T00:44:02.393Z,102711.31
2023-02-12T00:46:32.186Z,102709.50
2023-02-12T00:49:09.965Z,102718.47
2023-02-12T00:51:37.962Z,102713.09
2023-02-12T00:54:07.135Z,102722.09
2023-02-12T00:56:33.779Z,102731.00
2023-02-12T00:59:03.004Z,102732.88
2023-02-12T01:01:29.674Z,102727.69
2023-02-12T01:03:56.382Z,102734.72
2023-02-12T01:06:23.101Z,102741.03
2023-02-12T01:08:53.487Z,102743.72
2023-02-12T01:11:20.817Z,102748.19
2023-02-12T01:13:47.482Z,102740.25
2023-02-12T01:16:20.887Z,102736.53
2023-02-12T01:18:55.275Z,102744.41
2023-02-12T01:21:29.032Z,102755.38
2023-02-12T01:23:56.704Z,102754.72
2023-02-12T01:26:25.029Z,102758.22
2023-02-12T01:28:57.114Z,102760.97
2023-02-12T01:31:30.679Z,102760.13
2023-02-12T01:34:00.662Z,102763.69
2023-02-12T01:36:30.806Z,102753.09
2023-02-12T01:38:59.137Z,102757.44
2023-02-12T01:41:36.273Z,102755.72
2023-02-12T01:44:21.043Z,102756.59
2023-02-12T01:46:55.890Z,102756.59
2023-02-12T01:49:35.914Z,102767.19
2023-02-12T01:52:24.935Z,102772.47
2023-02-12T01:54:58.197Z,102767.13
2023-02-12T01:57:28.412Z,102777.84
2023-02-12T02:00:00.530Z,102774.13
2023-02-12T02:02:28.864Z,102767.91
2023-02-12T02:05:04.794Z,102768.84
2023-02-12T02:07:31.993Z,102769.63
2023-02-12T02:10:00.176Z,102755.44
2023-02-12T02:12:46.450Z,102757.13
2023-02-12T02:15:13.151Z,102749.63
2023-02-12T02:18:09.130Z,102747.03
2023-02-12T02:21:31.932Z,102750.63
2023-02-12T02:25:04.095Z,102755.13
2023-02-12T02:27:52.620Z,102752.38
2023-02-12T02:30:36.105Z,102749.63
2023-02-12T02:33:52.036Z,102764.94
2023-02-12T02:37:00.090Z,102751.66
2023-02-12T02:39:51.928Z,102748.19
2023-02-12T02:42:41.381Z,102750.72
2023-02-12T02:45:34.438Z,102749.88
2023-02-12T02:48:26.558Z,102751.59
2023-02-12T02:51:08.294Z,102752.69
2023-02-12T02:54:00.782Z,102746.47
2023-02-12T02:56:30.419Z,102744.81
2023-02-12T02:59:17.967Z,102748.06
2023-02-12T03:02:03.175Z,102751.59
2023-02-12T03:04:52.981Z,102744.34
2023-02-12T03:07:37.744Z,102763.28
2023-02-12T03:10:22.772Z,102758.03
2023-02-12T03:13:12.405Z,102753.66
2023-02-12T03:18:57.157Z,102758.84
2023-02-12T03:21:43.532Z,102764.38
2023-02-12T03:24:46.980Z,102764.50
2023-02-12T03:27:29.439Z,102761.69
2023-02-12T03:29:58.606Z,102758.13
2023-02-12T03:32:58.304Z,102766.25
2023-02-12T03:35:44.395Z,102770.53
2023-02-12T03:38:37.125Z,102766.81
2023-02-12T03:41:26.310Z,102756.31
2023-02-12T03:44:14.122Z,102763.41
2023-02-12T03:47:19.327Z,102764.38
2023-02-12T03:50:35.322Z,102780.44
2023-02-12T03:53:02.448Z,102776.34
2023-02-12T03:55:36.651Z,102781.81
2023-02-12T03:58:11.804Z,102778.41
2023-02-12T04:00:43.977Z,102777.78
2023-02-12T04:03:14.489Z,102784.78
2023-02-12T04:05:44.140Z,102794.56
2023-02-12T04:08:14.278Z,102798.19
2023-02-12T04:11:35.674Z,102798.84
2023-02-12T04:14:37.331Z,102798.13
2023-02-12T04:17:41.091Z,102799.13
2023-02-12T04:20:47.118Z,102791.19
2023-02-12T04:23:55.939Z,102799.06
2023-02-12T04:26:52.124Z,102800.03
2023-02-12T04:29:52.444Z,102800.81
2023-02-12T04:32:51.813Z,102801.81
2023-02-12T04:35:31.780Z,102804.59
2023-02-12T04:38:28.569Z,102805.50
2023-02-12T04:40:56.758Z,102809.16
2023-02-12T04:43:36.605Z,102808.28
2023-02-12T04:46:11.243Z,102813.72
2023-02-12T04:49:03.189Z,102809.16
2023-02-12T04:51:29.868Z,102814.50
2023-02-12T04:53:56.497Z,102809.22
2023-02-12T04:56:23.101Z,102815.38
2023-02-12T04:58:53.740Z,102816.34
2023-02-12T05:01:22.340Z,102810.97
2023-02-12T05:03:53.020Z,102828.84
2023-02-12T05:06:19.905Z,102819.00
2023-02-12T05:08:46.616Z,102827.06
2023-02-12T05:11:28.569Z,102830.72
2023-02-12T05:13:55.522Z,102831.53
2023-02-12T05:16:23.317Z,102831.66
2023-02-12T05:18:53.064Z,102832.66
2023-02-12T05:21:27.369Z,102827.44
2023-02-12T05:23:54.054Z,102831.88
2023-02-12T05:26:23.008Z,102826.56
2023-02-12T05:28:52.692Z,102832.09
2023-02-12T05:31:21.598Z,102825.13
2023-02-12T05:33:53.184Z,102835.78
2023-02-12T05:36:23.936Z,102844.69
2023-02-12T05:38:58.696Z,102839.41
2023-02-12T05:41:26.654Z,102826.94
2023-02-12T05:43:54.096Z,102834.94
2023-02-12T05:46:22.534Z,102827.88
2023-02-12T05:48:51.629Z,102825.34
2023-02-12T05:51:26.327Z,102829.75
2023-02-12T05:54:01.730Z,102835.06
2023-02-12T05:56:45.352Z,102843.31
2023-02-12T05:59:23.448Z,102836.22
2023-02-12T06:01:52.217Z,102839.03
2023-02-12T06:04:27.967Z,102830.28
2023-02-12T06:06:56.335Z,102835.72
2023-02-12T06:09:24.665Z,102845.56
2023-02-12T06:11:52.220Z,102846.41
2023-02-12T06:14:20.781Z,102838.44
2023-02-12T06:16:52.244Z,102842.06
2023-02-12T06:19:20.328Z,102848.38
2023-02-12T06:21:55.962Z,102848.47
2023-02-12T06:24:25.446Z,102838.66
2023-02-12T06:26:52.912Z,102841.34
2023-02-12T06:29:22.156Z,102849.47
2023-02-12T06:31:49.707Z,102861.16
2023-02-12T06:34:19.906Z,102858.59
2023-02-12T06:36:48.493Z,102859.50
2023-02-12T06:39:18.354Z,102857.94
2023-02-12T06:41:50.111Z,102861.59
2023-02-12T06:44:16.933Z,102864.38
2023-02-12T06:57:32.541Z,102867.97
2023-02-12T07:02:42.046Z,102883.13
2023-02-12T07:05:08.803Z,102872.47
2023-02-12T07:07:35.581Z,102875.00
2023-02-12T07:10:03.055Z,102873.06
2023-02-12T07:12:29.728Z,102881.91
2023-02-12T07:14:56.343Z,102880.94
2023-02-12T07:17:23.026Z,102879.00
2023-02-12T07:19:49.951Z,102873.59
2023-02-12T07:22:19.372Z,102878.72
2023-02-12T07:30:19.683Z,102883.72
2023-02-12T07:32:46.424Z,102897.13
2023-02-12T09:11:26.521Z,102960.09
2023-02-12T09:32:48.400Z,102983.88
2023-02-12T09:35:15.250Z,102989.66
2023-02-12T09:37:44.876Z,102986.78
2023-02-12T09:40:59.115Z,102997.06
2023-02-12T09:43:45.250Z,102993.84
2023-02-12T09:46:49.684Z,102993.72
2023-02-12T09:49:50.733Z,102999.69
2023-02-12T09:52:24.377Z,102993.59
2023-02-12T09:54:55.999Z,103008.63
2023-02-12T09:57:35.984Z,102998.09
2023-02-12T10:00:31.160Z,102996.63
2023-02-12T10:03:11.743Z,102999.03
2023-02-12T10:05:52.116Z,102995.66
2023-02-12T10:09:12.815Z,102992.41
2023-02-12T10:12:04.376Z,102989.00
2023-02-12T10:15:15.340Z,102992.09
2023-02-12T10:18:21.255Z,102997.84
2023-02-12T10:21:30.894Z,102986.22
2023-02-12T10:25:06.298Z,103000.31
2023-02-12T10:28:02.289Z,102999.34
2023-02-12T10:31:00.668Z,102996.47
2023-02-12T10:33:38.809Z,102990.84
2023-02-12T10:36:45.309Z,102997.41
2023-02-12T10:39:14.848Z,103001.13
2023-02-12T10:42:16.281Z,103000.00
2023-02-12T10:44:43.038Z,102999.13
2023-02-12T10:47:26.298Z,102997.72
2023-02-12T10:50:04.689Z,103000.69
2023-02-12T10:53:03.580Z,102981.19
2023-02-12T10:55:41.780Z,102986.88
2023-02-12T10:58:24.254Z,102981.69
2023-02-12T11:01:02.267Z,102993.25
2023-02-12T11:03:42.187Z,102989.78
2023-02-12T11:06:28.018Z,102991.28
2023-02-12T11:08:57.528Z,102993.97
2023-02-12T11:11:38.761Z,102988.19
2023-02-12T11:14:30.444Z,102975.25
2023-02-12T11:17:02.700Z,102989.09
2023-02-12T11:19:34.975Z,102980.03
2023-02-12T11:22:14.615Z,102986.94
2023-02-12T11:25:01.996Z,102981.84
2023-02-12T11:27:33.907Z,102990.41
2023-02-12T11:30:24.514Z,102987.78
2023-02-12T11:32:52.247Z,102979.69
2023-02-12T11:35:29.579Z,102975.19
2023-02-12T11:37:59.501Z,102970.38
2023-02-12T11:40:33.963Z,102970.94
2023-02-12T11:43:07.633Z,102971.91
2023-02-12T11:45:56.268Z,102972.94
2023-02-12T11:48:41.383Z,102968.25
2023-02-12T11:59:38.710Z,102963.53
2023-02-12T12:22:44.264Z,102955.13
2023-02-12T12:25:36.179Z,102959.53
2023-02-12T12:41:15.909Z,102938.94
2023-02-12T13:28:38.430Z,102910.69
2023-02-12T14:32:01.602Z,102888.41
2023-02-12T14:34:38.916Z,102894.06
2023-02-12T14:37:38.165Z,102892.59
2023-02-12T14:40:33.188Z,102894.56
2023-02-12T15:32:51.849Z,102913.09
2023-02-12T15:35:45.088Z,102928.13
2023-02-12T15:38:43.942Z,102927.31
2023-02-12T15:41:33.180Z,102934.25
2023-02-12T15:44:23.721Z,102937.97
2023-02-12T15:47:17.122Z,102930.00
2023-02-12T15:50:00.512Z,102922.44
2023-02-12T15:52:52.279Z,102931.81
2023-02-12T15:55:42.610Z,102931.31
2023-02-12T15:59:07.351Z,102931.78
2023-02-12T16:01:37.839Z,102934.72
2023-02-12T16:04:19.856Z,102931.41
2023-02-12T16:06:53.425Z,102944.88
2023-02-12T16:09:35.859Z,102938.00
2023-02-12T16:12:13.559Z,102955.06
2023-02-12T16:15:03.387Z,102952.53
2023-02-12T16:17:38.478Z,102945.56
2023-02-12T16:20:24.772Z,102956.22
2023-02-12T16:23:09.828Z,102951.06
2023-02-12T16:28:32.291Z,102947.63
2023-02-12T16:31:18.604Z,102949.50
2023-02-12T16:34:04.108Z,102952.19
2023-02-12T16:36:35.360Z,102954.78
2023-02-12T16:39:30.857Z,102961.91
2023-02-12T16:42:00.444Z,102960.25
2023-02-12T16:44:37.381Z,102957.56
2023-02-12T16:47:15.222Z,102961.22
2023-02-12T16:50:03.456Z,102962.03
2023-02-12T16:52:45.310Z,102952.31
2023-02-12T16:55:20.633Z,102962.13
2023-02-12T16:57:47.564Z,102964.06
2023-02-12T17:00:20.525Z,102972.06
2023-02-12T17:02:58.063Z,102967.56
2023-02-12T17:05:24.866Z,102966.75
2023-02-12T17:07:51.835Z,102959.66
2023-02-12T17:10:22.131Z,102972.28
2023-02-12T17:12:53.493Z,102977.78
2023-02-12T17:15:38.861Z,102975.97
2023-02-12T17:18:05.889Z,102971.53
2023-02-12T17:21:47.066Z,102973.38
2023-02-12T17:24:26.998Z,102961.59
2023-02-12T17:26:55.633Z,102972.34
2023-02-12T17:29:26.241Z,102971.59
2023-02-12T17:31:55.297Z,102978.00
2023-02-12T17:34:50.775Z,102976.41
2023-02-12T17:37:27.336Z,102979.16
2023-02-12T17:40:04.032Z,102989.03
2023-02-12T17:42:36.461Z,102984.59
2023-02-12T17:45:07.356Z,102987.22
2023-02-12T17:47:54.196Z,102990.91
2023-02-12T17:50:21.199Z,102988.94
2023-02-12T17:52:55.395Z,102991.72
2023-02-12T17:55:43.358Z,102991.84
2023-02-12T17:58:10.063Z,102997.22
2023-02-12T18:00:46.408Z,102994.63
2023-02-12T18:03:13.024Z,102991.94
2023-02-12T18:05:53.452Z,102987.50
2023-02-12T18:08:20.356Z,102978.75
2023-02-12T18:10:56.428Z,102995.81
2023-02-12T18:13:34.787Z,102989.53
2023-02-12T18:16:11.611Z,102988.66
2023-02-12T18:21:35.716Z,103007.44
2023-02-12T18:24:04.778Z,103001.34
2023-02-12T18:26:57.782Z,103006.75
2023-02-12T18:29:27.415Z,103003.22
2023-02-12T18:31:55.351Z,103001.50
2023-02-12T18:34:22.214Z,103005.97
2023-02-12T18:36:55.343Z,102998.88
2023-02-12T18:39:22.070Z,102998.81
2023-02-12T18:41:54.338Z,103000.69
2023-02-12T18:44:21.117Z,103000.81
2023-02-12T18:46:56.915Z,103006.09
2023-02-12T18:49:23.554Z,103005.25
2023-02-12T18:51:59.815Z,103000.09
2023-02-12T18:54:26.794Z,103004.59
2023-02-12T18:56:58.588Z,103000.97
2023-02-12T18:59:27.242Z,102992.97
2023-02-12T19:01:55.290Z,102996.59
2023-02-12T19:07:08.501Z,102994.78
2023-02-12T19:26:20.063Z,102995.06
2023-02-12T20:02:26.716Z,102997.91
2023-02-12T20:05:05.287Z,102992.72
2023-02-12T20:18:42.407Z,102993.72
2023-02-12T20:32:11.035Z,102992.66
2023-02-12T21:27:14.849Z,103007.59
2023-02-12T22:47:09.630Z,103017.56
2023-02-12T22:49:36.326Z,103017.78
2023-02-12T22:52:06.136Z,103026.75
2023-02-12T23:08:45.747Z,103022.31
2023-02-12T23:11:12.497Z,103017.66
2023-02-12T23:13:45.223Z,103011.50
2023-02-12T23:16:19.039Z,103016.03
2023-02-12T23:18:52.046Z,103019.66
2023-02-12T23:21:21.885Z,103015.19
2023-02-12T23:23:51.697Z,103014.22
2023-02-12T23:26:18.383Z,103016.03
2023-02-12T23:28:50.660Z,103018.66
2023-02-12T23:31:23.899Z,103015.09
2023-02-12T23:33:56.797Z,103021.25
2023-02-12T23:36:23.418Z,103016.00
2023-02-12T23:38:53.276Z,103008.00
2023-02-12T23:41:22.316Z,103014.22
2023-02-12T23:43:57.665Z,103014.38
2023-02-12T23:46:24.472Z,103012.72
2023-02-12T23:48:51.189Z,103010.03
2023-02-12T23:51:21.052Z,103011.81
2023-02-12T23:53:49.592Z,103004.53
2023-02-12T23:56:16.342Z,103003.72
2023-02-12T23:58:50.822Z,103001.03
